• Join FlightAware (Why Join?)
  • Login
  • US Flag 
12:10AM EDT


 

Airport Tracker/Info


-or-


 

Live Flight TrackerFlight Track Log ✈ FFT403 ✈ 25-Apr-2013 ✈ KDEN - KLAX

Flight Track Log - Related Links

Times and Time Zones

All times are in EDT time to prevent confusion due to time zone crossing. See the FFT403 flight status page for this flight to view local times or setup timezone preferences in your user account.

Time Position Orientation Groundspeed Altitude Reporting Facility
EDT Latitude Longitude Course Direction KTS MPH feet Rate Location/Type
11:00AM 39.8333 -104.7667 252° West 184 212 6,800  Level Denver TRACON
11:01AM 39.8167 -104.8333 252° West 242 278 8,200 1,740 Climbing Denver TRACON
11:02AM 39.8014 -104.8958 252° West 267 307 9,700 2,220 Climbing Denver Center
11:03AM 39.7675 -104.9950 246° West 301 346 12,000 3,000 Climbing Denver Center
11:04AM 39.7292 -105.1056 246° West 302 348 16,000 2,640 Climbing Denver Center
11:05AM 39.6958 -105.2058 247° West 303 349 18,100 1,920 Climbing Denver Center
11:06AM 39.6489 -105.3408 246° West 331 381 20,400 2,160 Climbing Denver Center
11:07AM 39.6078 -105.4581 246° West 340 391 22,700 1,680 Climbing Denver Center
11:08AM 39.5781 -105.5464 246° West 348 400 23,900 1,740 Climbing Denver Center
11:09AM 39.5317 -105.6886 247° West 356 410 26,300 2,100 Climbing Denver Center
11:10AM 39.4986 -105.8094 251° West 354 407 28,300 1,680 Climbing Denver Center
11:11AM 39.4606 -105.9506 251° West 354 407 29,800 1,140 Climbing Denver Center
11:13AM 39.4267 -106.0758 251° West 365 420 30,900 1,080 Climbing Denver Center
11:14AM 39.3844 -106.2228 250° West 374 430 32,300 1,200 Climbing Denver Center
11:15AM 39.3444 -106.3633 250° West 374 430 33,400 1,140 Climbing Denver Center
11:16AM 39.3094 -106.4867 250° West 380 437 34,700 1,020 Climbing Denver Center
11:17AM 39.2689 -106.6306 250° West 382 440 35,600 960 Climbing Denver Center
11:18AM 39.2256 -106.7453 244° Southwest 373 429 37,000 900 Climbing Denver Center
11:19AM 39.1431 -106.8792 232° Southwest 373 429 37,700 480 Climbing Denver Center
11:20AM 39.0789 -106.9794 231° Southwest 378 435 38,000 120 Climbing Denver Center
11:21AM 39.0028 -107.0997 231° Southwest 384 442 38,000  Level Denver Center
11:22AM 38.9392 -107.2014 231° Southwest 382 440 38,000  Level Denver Center
11:23AM 38.8647 -107.3183 231° Southwest 379 436 38,000  Level Denver Center
11:24AM 38.8006 -107.4178 230° Southwest 377 434 38,000  Level Denver Center
11:25AM 38.7258 -107.5333 230° Southwest 376 433 38,000  Level Denver Center
11:26AM 38.6625 -107.6336 231° Southwest 377 434 38,000  Level Denver Center
11:27AM 38.5878 -107.7486 230° Southwest 375 432 38,000  Level Denver Center
11:28AM 38.5244 -107.8467 230° Southwest 373 429 38,000  Level Denver Center
11:29AM 38.4603 -107.9458 230° Southwest 376 433 38,000  Level Denver Center
11:30AM 38.3858 -108.0603 230° Southwest 375 432 38,000  Level Denver Center
11:31AM 38.3219 -108.1592 231° Southwest 375 432 38,000  Level Denver Center
11:32AM 38.2469 -108.2717 230° Southwest 374 430 38,000  Level Denver Center
11:33AM 38.1939 -108.3544 231° Southwest 377 434 38,000  Level Denver Center
11:34AM 38.1081 -108.4836 230° Southwest 374 430 38,000  Level Denver Center
11:35AM 38.0383 -108.5872 230° Southwest 375 432 38,000  Level Denver Center
11:37AM 37.9736 -108.6811 229° Southwest 372 428 38,000  Level Denver Center
11:38AM 37.8989 -108.7958 230° Southwest 376 433 38,000  Level Denver Center
11:39AM 37.8447 -108.8758 229° Southwest 375 432 38,000  Level Denver Center
11:40AM 37.7703 -109.0150 236° Southwest 373 429 38,000  Level Denver Center
11:41AM 37.7219 -109.1264 241° Southwest 378 435 38,000  Level Denver Center
11:42AM 37.6653 -109.2544 241° Southwest 376 433 38,000  Level Denver Center
11:43AM 37.6075 -109.3839 241° Southwest 378 435 38,000  Level Denver Center
11:44AM 37.5403 -109.5339 241° Southwest 385 443 38,000  Level Denver Center
11:45AM 37.4811 -109.6650 240° Southwest 387 445 38,000  Level Denver Center
11:46AM 37.4300 -109.7783 240° Southwest 390 449 38,000  Level Denver Center
11:47AM 37.3708 -109.9072 240° Southwest 384 442 38,000  Level Denver Center
11:48AM 37.3200 -110.0189 240° Southwest 386 444 38,000  Level Denver Center
11:49AM 37.2619 -110.1489 241° Southwest 383 441 38,000  Level Denver Center
11:50AM 37.2142 -110.2517 240° Southwest 383 441 38,000  Level Denver Center
11:51AM 37.1486 -110.3928 240° Southwest 391 450 38,000  Level Denver Center
11:52AM 37.0939 -110.5100 240° Southwest 390 449 38,000  Level Denver Center
11:53AM 37.0397 -110.6281 240° Southwest 391 450 38,000  Level Denver Center
11:55AM 36.9844 -110.7469 240° Southwest 394 453 38,000  Level Denver Center
11:56AM 36.9300 -110.8656 240° Southwest 394 453 38,000  Level Denver Center
11:57AM 36.8742 -110.9822 239° Southwest 391 450 38,000  Level Denver Center
11:58AM 36.8078 -111.1233 240° Southwest 393 452 38,000  Level Denver Center
11:59AM 36.7522 -111.2419 240° Southwest 393 452 38,000  Level Denver Center
12:00PM 36.6981 -111.3586 240° Southwest 392 451 38,000  Level Denver Center
12:01PM 36.6417 -111.4761 239° Southwest 393 452 38,000  Level Denver Center
12:02PM 36.5869 -111.5950 240° Southwest 395 455 38,000  Level Denver Center
12:03PM 36.5361 -111.7181 243° Southwest 398 458 38,000  Level Denver Center
12:04PM 36.4850 -111.8403 243° Southwest 397 457 38,000  Level Denver Center
12:05PM 36.4247 -111.9861 243° Southwest 397 457 38,000  Level Denver Center
12:06PM 36.3733 -112.1061 242° Southwest 392 451 38,000  Level Los Angeles Center
12:07PM 36.3228 -112.2281 243° Southwest 395 455 38,000  Level Los Angeles Center
12:08PM 36.2700 -112.3514 242° Southwest 402 463 38,000  Level Los Angeles Center
12:09PM 36.2178 -112.4747 242° Southwest 403 464 38,000  Level Los Angeles Center
12:10PM 36.1647 -112.5989 242° Southwest 408 470 38,000  Level Los Angeles Center
12:11PM 36.1025 -112.7444 242° Southwest 400 460 38,000  Level Los Angeles Center
12:12PM 36.0506 -112.8653 242° Southwest 399 459 38,000  Level Los Angeles Center
12:13PM 35.9994 -112.9858 242° Southwest 398 458 38,000  Level Los Angeles Center
12:14PM 35.9517 -113.0989 242° Southwest 399 459 38,000  Level Los Angeles Center
12:15PM 35.8867 -113.2456 241° Southwest 407 468 38,000  Level Los Angeles Center
12:16PM 35.8344 -113.3658 242° Southwest 404 465 38,000  Level Los Angeles Center
12:17PM 35.7817 -113.4861 242° Southwest 404 465 38,000  Level Los Angeles Center
12:18PM 35.7400 -113.5833 242° Southwest 405 466 38,000  Level Los Angeles Center
12:19PM 35.6764 -113.7275 242° Southwest 404 465 38,000  Level Los Angeles Center
12:20PM 35.6119 -113.8719 241° Southwest 405 466 38,000  Level Los Angeles Center
12:21PM 35.5589 -113.9914 241° Southwest 403 464 38,000  Level Los Angeles Center
12:22PM 35.5058 -114.1106 241° Southwest 401 461 38,000  Level Los Angeles Center
12:23PM 35.4525 -114.2300 241° Southwest 402 463 38,000  Level Los Angeles Center
12:25PM 35.3922 -114.3644 241° Southwest 404 465 38,000  Level Los Angeles Center
12:26PM 35.3372 -114.4861 241° Southwest 405 466 38,000  Level Los Angeles Center
12:27PM 35.2831 -114.6075 241° Southwest 405 466 38,000  Level Los Angeles Center
12:28PM 35.2272 -114.7283 241° Southwest 407 468 38,000  Level Los Angeles Center
12:29PM 35.1608 -114.8736 241° Southwest 406 467 38,000  Level Los Angeles Center
12:30PM 35.1064 -114.9939 241° Southwest 403 464 38,000  Level Los Angeles Center
12:31PM 35.0519 -115.1144 241° Southwest 405 466 38,000  Level Los Angeles Center
12:32PM 34.9958 -115.2353 240° Southwest 408 470 38,000  Level Los Angeles Center
12:33PM 34.9436 -115.3492 241° Southwest 409 471 38,000  Level Los Angeles Center
12:34PM 34.8833 -115.4786 240° Southwest 411 473 38,000  Level Los Angeles Center
12:35PM 34.8200 -115.6156 241° Southwest 412 474 38,000  Level Los Angeles Center
12:36PM 34.7628 -115.7369 240° Southwest 414 476 38,000  Level Los Angeles Center
12:37PM 34.7061 -115.8572 240° Southwest 411 473 38,000  Level Los Angeles Center
12:38PM 34.6500 -115.9778 241° Southwest 410 472 38,000 -540 Level Los Angeles Center
12:39PM 34.5931 -116.0967 240° Southwest 408 470 37,000 -1,260 Descending Los Angeles Center
12:40PM 34.5258 -116.2400 240° Southwest 407 468 35,500 -2,220 Descending Los Angeles Center
12:41PM 34.4681 -116.3611 240° Southwest 414 476 32,500 -2,760 Descending Los Angeles Center
12:42PM 34.4094 -116.4825 240° Southwest 416 479 29,900 -2,340 Descending Los Angeles Center
12:43PM 34.3517 -116.6028 240° Southwest 413 475 27,700 -2,220 Descending Los Angeles Center
12:44PM 34.2967 -116.7181 240° Southwest 399 459 25,400 -2,220 Descending Los Angeles Center
12:45PM 34.2408 -116.8317 239° Southwest 394 453 23,200 -2,160 Descending Los Angeles Center
12:46PM 34.1872 -116.9439 240° Southwest 388 447 20,900 -2,280 Descending Los Angeles Center
12:47PM 34.1219 -117.0758 239° Southwest 381 438 18,500 -2,160 Descending Los Angeles Center
12:48PM 34.0833 -117.1667 243° Southwest 371 427 17,200 -1,680 Descending Southern California TRACON
12:49PM 34.0500 -117.2833 251° West 352 405 15,500 -1,620 Descending Southern California TRACON
12:50PM 34.0333 -117.3833 259° West 348 400 14,000 -1,680 Descending Southern California TRACON
12:51PM 34.0167 -117.5000 260° West 339 390 12,400 -1,500 Descending Southern California TRACON
12:52PM 34.0167 -117.6167 270° West 413 475 11,000 -1,320 Descending Southern California TRACON
12:53PM 34.0000 -117.7167 259° West 298 343 9,800 -1,380 Descending Southern California TRACON
12:54PM 34.0000 -117.8000 270° West 293 337 8,400 -1,440 Descending Southern California TRACON
12:55PM 33.9833 -117.9000 259° West 291 335 7,100 -1,020 Descending Southern California TRACON
12:56PM 33.9833 -117.9833 270° West 257 296 6,400 -900 Descending Southern California TRACON
12:57PM 33.9667 -118.0667 256° West 234 269 5,300 -1,200 Descending Southern California TRACON
12:58PM 33.9667 -118.1333 270° West 211 243 4,000 -1,200 Descending Southern California TRACON
12:59PM 33.9581 -118.1881 259° West 212 244 3,200 -1,020 Descending Los Angeles Center
01:00PM 33.9508 -118.2519 262° West 200 230 2,200 -960 Descending Los Angeles Center
01:01PM 33.9444 -118.3119 263° West 192 221 1,300 -900 Descending Los Angeles Center
01:02PM 33.9406 -118.3642 265° West 149 171 400 -600 Descending Los Angeles Center
01:03PM 33.9306 -118.4014 252° West 152 175 100 -300 Descending Los Angeles Center